createdAt,value
2018-12-11T00:02:24.544Z,14.27
2018-12-11T00:04:58.412Z,12.83
2018-12-11T00:07:32.794Z,13.63
2018-12-11T00:10:07.190Z,16.57
2018-12-11T00:12:41.183Z,12.23
2018-12-11T00:15:15.513Z,10.60
2018-12-11T00:17:50.467Z,9.70
2018-12-11T00:20:24.313Z,10.77
2018-12-11T00:22:58.265Z,12.80
2018-12-11T00:25:32.233Z,9.37
2018-12-11T00:28:06.362Z,9.97
2018-12-11T00:30:40.329Z,10.70
2018-12-11T00:33:14.219Z,11.20
2018-12-11T00:35:48.252Z,10.63
2018-12-11T00:38:22.306Z,11.73
2018-12-11T00:40:56.317Z,10.10
2018-12-11T00:43:30.659Z,11.73
2018-12-11T00:46:04.531Z,9.93
2018-12-11T00:48:38.797Z,12.63
2018-12-11T00:51:12.873Z,8.83
2018-12-11T00:53:46.765Z,8.17
2018-12-11T00:56:20.785Z,12.80
2018-12-11T00:58:54.762Z,8.07
2018-12-11T01:01:28.901Z,12.07
2018-12-11T01:04:02.873Z,10.73
2018-12-11T01:06:37.566Z,12.30
2018-12-11T01:09:11.775Z,13.63
2018-12-11T01:11:45.721Z,11.23
2018-12-11T01:14:19.665Z,11.53
2018-12-11T01:16:53.730Z,17.70
2018-12-11T01:19:28.070Z,11.40
2018-12-11T01:22:03.257Z,8.00
2018-12-11T01:24:38.214Z,12.57
2018-12-11T01:27:12.958Z,14.00
2018-12-11T01:29:47.096Z,14.60
2018-12-11T01:32:21.402Z,12.70
2018-12-11T01:34:56.002Z,13.03
2018-12-11T01:37:30.605Z,14.60
2018-12-11T01:40:05.017Z,9.90
2018-12-11T01:42:39.059Z,15.23
2018-12-11T01:45:13.136Z,12.87
2018-12-11T01:47:47.242Z,12.17
2018-12-11T01:50:21.136Z,12.70
2018-12-11T01:52:55.022Z,12.83
2018-12-11T01:55:28.909Z,15.77
2018-12-11T01:58:03.139Z,10.90
2018-12-11T02:00:37.723Z,14.70
2018-12-11T02:03:11.753Z,12.00
2018-12-11T02:05:46.029Z,13.83
2018-12-11T02:08:19.825Z,13.13
2018-12-11T02:13:25.227Z,11.70
2018-12-11T02:15:59.723Z,9.90
2018-12-11T02:18:33.614Z,10.23
2018-12-11T02:21:07.680Z,8.23
2018-12-11T02:23:41.473Z,8.40
2018-12-11T02:26:15.734Z,9.87
2018-12-11T02:28:50.283Z,12.13
2018-12-11T02:31:24.295Z,11.47
2018-12-11T02:33:58.375Z,10.13
2018-12-11T02:36:32.411Z,15.23
2018-12-11T02:39:07.252Z,11.13
2018-12-11T02:41:41.669Z,15.80
2018-12-11T02:44:15.754Z,11.67
2018-12-11T02:46:49.799Z,9.63
2018-12-11T02:49:23.713Z,13.97
2018-12-11T02:51:57.517Z,11.83
2018-12-11T02:54:32.561Z,11.93
2018-12-11T02:57:07.302Z,9.83
2018-12-11T02:59:41.668Z,10.43
2018-12-11T03:02:16.341Z,11.50
2018-12-11T03:04:50.629Z,13.07
2018-12-11T03:07:24.690Z,10.10
2018-12-11T03:09:58.660Z,11.70
2018-12-11T03:15:04.507Z,10.30
2018-12-11T03:17:38.949Z,10.03
2018-12-11T03:20:12.745Z,13.97
2018-12-11T03:22:47.193Z,12.10
2018-12-11T03:25:21.969Z,14.00
2018-12-11T03:27:56.013Z,15.57
2018-12-11T03:30:30.142Z,13.43
2018-12-11T03:33:04.153Z,8.00
2018-12-11T03:35:38.050Z,11.63
2018-12-11T03:38:11.901Z,14.30
2018-12-11T03:40:45.874Z,6.53
2018-12-11T03:43:19.843Z,8.40
2018-12-11T03:45:53.942Z,10.90
2018-12-11T03:48:28.091Z,8.53
2018-12-11T03:51:02.243Z,8.33
2018-12-11T03:53:36.139Z,7.47
2018-12-11T03:56:10.399Z,12.30
2018-12-11T03:58:45.188Z,11.57
2018-12-11T04:01:19.458Z,10.50
2018-12-11T04:03:53.283Z,6.93
2018-12-11T04:06:27.433Z,9.43
2018-12-11T04:09:01.538Z,9.27
2018-12-11T04:11:36.237Z,12.13
2018-12-11T04:16:41.291Z,14.00
2018-12-11T04:19:15.275Z,7.17
2018-12-11T04:21:49.067Z,10.20
2018-12-11T04:24:23.170Z,9.63
2018-12-11T04:26:57.378Z,10.97
2018-12-11T04:29:31.190Z,10.57
2018-12-11T04:32:05.185Z,12.03
2018-12-11T04:34:39.242Z,9.23
2018-12-11T04:37:13.056Z,10.40
2018-12-11T04:39:47.146Z,14.00
2018-12-11T04:42:21.425Z,11.60
2018-12-11T04:44:55.323Z,8.53
2018-12-11T04:47:29.423Z,11.28
2018-12-11T04:50:03.507Z,10.27
2018-12-11T04:52:37.498Z,13.60
2018-12-11T04:55:11.905Z,12.73
2018-12-11T04:57:45.725Z,13.87
2018-12-11T05:00:19.885Z,9.10
2018-12-11T05:02:53.917Z,10.17
2018-12-11T05:05:28.102Z,12.53
2018-12-11T05:08:04.810Z,10.67
2018-12-11T05:10:39.509Z,13.03
2018-12-11T05:13:13.790Z,9.07
2018-12-11T05:18:21.310Z,11.80
2018-12-11T05:20:55.787Z,11.07
2018-12-11T05:23:29.731Z,15.63
2018-12-11T05:26:03.545Z,10.47
2018-12-11T05:28:37.558Z,11.50
2018-12-11T05:31:11.541Z,13.57
2018-12-11T05:33:45.529Z,9.37
2018-12-11T05:36:19.421Z,9.27
2018-12-11T05:38:53.438Z,10.67
2018-12-11T05:41:27.437Z,10.27
2018-12-11T05:44:01.393Z,12.13
2018-12-11T05:46:35.162Z,10.43
2018-12-11T05:49:09.173Z,10.17
2018-12-11T05:51:43.085Z,9.67
2018-12-11T05:54:17.177Z,11.97
2018-12-11T05:56:51.221Z,8.07
2018-12-11T05:59:25.438Z,9.30
2018-12-11T06:01:59.434Z,7.63
2018-12-11T06:04:34.291Z,8.40
2018-12-11T06:07:09.681Z,8.60
2018-12-11T06:09:43.523Z,10.30
2018-12-11T06:12:17.669Z,7.83
2018-12-11T06:14:51.805Z,8.97
2018-12-11T06:19:57.116Z,8.83
2018-12-11T06:22:31.350Z,12.20
2018-12-11T06:25:05.530Z,9.67
2018-12-11T06:27:39.661Z,7.60
2018-12-11T06:30:13.423Z,10.13
2018-12-11T06:32:47.341Z,8.83
2018-12-11T06:35:21.476Z,11.57
2018-12-11T06:37:55.226Z,10.87
2018-12-11T06:40:29.144Z,9.83
2018-12-11T06:43:03.266Z,12.50
2018-12-11T06:45:37.153Z,12.63
2018-12-11T06:48:11.017Z,12.20
2018-12-11T06:50:45.578Z,10.80
2018-12-11T06:53:21.109Z,14.93
2018-12-11T06:55:55.153Z,12.87
2018-12-11T06:58:28.988Z,12.10
2018-12-11T07:01:03.462Z,10.03
2018-12-11T07:03:38.228Z,13.93
2018-12-11T07:06:13.072Z,11.67
2018-12-11T07:08:47.770Z,12.10
2018-12-11T07:11:22.570Z,10.10
2018-12-11T07:13:56.686Z,10.93
2018-12-11T07:16:30.802Z,8.87
2018-12-11T07:21:35.847Z,11.43
2018-12-11T07:24:10.135Z,12.23
2018-12-11T07:26:44.634Z,12.67
2018-12-11T07:29:19.252Z,13.77
2018-12-11T07:31:53.200Z,9.10
2018-12-11T07:34:28.910Z,10.53
2018-12-11T07:37:03.315Z,8.70
2018-12-11T07:39:37.858Z,9.87
2018-12-11T07:42:11.923Z,8.03
2018-12-11T07:44:45.767Z,9.17
2018-12-11T07:47:19.841Z,7.93
2018-12-11T07:49:54.461Z,13.43
2018-12-11T07:52:28.807Z,7.87
2018-12-11T07:55:03.550Z,14.47
2018-12-11T07:57:37.424Z,12.87
2018-12-11T08:00:11.353Z,9.97
2018-12-11T08:02:45.716Z,9.70
2018-12-11T08:05:19.655Z,10.40
2018-12-11T08:07:53.681Z,9.87
2018-12-11T08:10:28.543Z,9.67
2018-12-11T08:13:04.454Z,15.70
2018-12-11T08:15:38.482Z,16.97
2018-12-11T08:18:13.247Z,11.03
2018-12-11T08:20:47.419Z,11.43
2018-12-11T08:23:21.878Z,10.47
2018-12-11T08:25:56.130Z,10.77
2018-12-11T08:28:30.829Z,10.57
2018-12-11T08:31:04.889Z,12.13
2018-12-11T08:33:39.005Z,11.70
2018-12-11T08:36:13.628Z,11.60
2018-12-11T08:38:47.747Z,12.77
2018-12-11T08:41:22.778Z,14.73
2018-12-11T08:43:56.862Z,12.67
2018-12-11T08:46:30.754Z,13.13
2018-12-11T08:49:04.686Z,13.07
2018-12-11T08:51:38.949Z,13.60
2018-12-11T08:54:13.591Z,13.27
2018-12-11T08:56:47.785Z,12.20
2018-12-11T08:59:21.971Z,8.43
2018-12-11T09:01:56.754Z,11.03
2018-12-11T09:04:30.631Z,11.43
2018-12-11T09:07:04.982Z,11.27
2018-12-11T09:09:39.650Z,12.43
2018-12-11T09:12:13.889Z,8.67
2018-12-11T09:14:48.103Z,11.77
2018-12-11T09:17:22.059Z,11.20
2018-12-11T09:19:56.165Z,10.53
2018-12-11T09:22:30.366Z,12.50
2018-12-11T09:25:05.363Z,9.00
2018-12-11T09:27:39.468Z,9.23
2018-12-11T09:30:14.160Z,8.53
2018-12-11T09:32:48.454Z,8.60
2018-12-11T09:35:22.779Z,12.03
2018-12-11T09:37:57.599Z,11.67
2018-12-11T09:40:32.350Z,10.43
2018-12-11T09:43:06.452Z,9.47
2018-12-11T09:45:40.548Z,9.20
2018-12-11T09:48:14.374Z,9.87
2018-12-11T09:50:48.761Z,9.47
2018-12-11T09:53:23.406Z,10.80
2018-12-11T09:55:57.594Z,11.87
2018-12-11T09:58:32.522Z,12.60
2018-12-11T10:01:07.603Z,7.70
2018-12-11T10:03:42.513Z,12.97
2018-12-11T10:06:17.274Z,7.93
2018-12-11T10:08:53.251Z,8.97
2018-12-11T10:11:27.575Z,10.37
2018-12-11T10:14:02.470Z,11.67
2018-12-11T10:16:36.344Z,10.75
2018-12-11T10:19:10.437Z,7.23
2018-12-11T10:21:44.387Z,11.17
2018-12-11T10:24:20.513Z,10.37
2018-12-11T10:26:55.123Z,9.83
2018-12-11T10:29:28.986Z,11.37
2018-12-11T10:32:03.721Z,10.63
2018-12-11T10:34:37.588Z,9.07
2018-12-11T10:37:11.416Z,10.53
2018-12-11T10:39:45.415Z,10.27
2018-12-11T10:42:19.599Z,11.83
2018-12-11T10:44:54.286Z,9.70
2018-12-11T10:47:29.045Z,6.93
2018-12-11T10:50:03.290Z,10.67
2018-12-11T10:52:37.917Z,9.37
2018-12-11T10:55:12.781Z,14.67
2018-12-11T10:57:47.472Z,9.80
2018-12-11T11:00:26.992Z,8.77
2018-12-11T11:03:07.950Z,9.93
2018-12-11T11:05:42.766Z,8.20
2018-12-11T11:08:17.186Z,13.30
2018-12-11T11:10:51.138Z,8.33
2018-12-11T11:13:25.192Z,7.53
2018-12-11T11:15:59.284Z,7.87
2018-12-11T11:18:33.161Z,10.73
2018-12-11T11:21:06.990Z,11.43
2018-12-11T11:23:40.946Z,8.53
2018-12-11T11:26:15.000Z,13.37
2018-12-11T11:28:49.202Z,8.40
2018-12-11T11:31:23.324Z,13.13
2018-12-11T11:33:58.726Z,8.37
2018-12-11T11:36:33.673Z,8.63
2018-12-11T11:39:08.616Z,10.97
2018-12-11T11:41:43.231Z,7.33
2018-12-11T11:44:17.442Z,10.93
2018-12-11T11:46:51.643Z,11.40
2018-12-11T11:49:26.456Z,13.60
2018-12-11T11:52:00.647Z,12.10
2018-12-11T11:54:35.547Z,9.77
2018-12-11T11:57:09.950Z,8.57
2018-12-11T11:59:44.682Z,12.77
2018-12-11T12:02:18.910Z,9.17
2018-12-11T12:04:53.748Z,9.10
2018-12-11T12:07:28.400Z,10.80
2018-12-11T12:10:03.791Z,8.67
2018-12-11T12:12:38.229Z,6.23
2018-12-11T12:15:12.472Z,9.67
2018-12-11T12:17:47.268Z,13.83
2018-12-11T12:20:21.568Z,10.37
2018-12-11T12:22:56.310Z,10.00
2018-12-11T12:25:30.175Z,9.67
2018-12-11T12:28:04.289Z,10.13
2018-12-11T12:30:38.970Z,7.33
2018-12-11T12:33:13.369Z,7.43
2018-12-11T12:35:48.024Z,10.63
2018-12-11T12:38:22.102Z,8.80
2018-12-11T12:40:56.882Z,11.13
2018-12-11T12:43:31.211Z,10.63
2018-12-11T12:46:05.980Z,6.03
2018-12-11T12:48:40.229Z,10.33
2018-12-11T12:51:14.141Z,11.70
2018-12-11T12:53:48.088Z,8.63
2018-12-11T12:56:20.640Z,12.03
2018-12-11T12:58:55.186Z,9.10
2018-12-11T13:01:29.110Z,14.27
2018-12-11T13:04:03.508Z,8.63
2018-12-11T13:06:37.807Z,11.25
2018-12-11T13:09:12.512Z,11.13
2018-12-11T13:11:46.731Z,11.07
2018-12-11T13:14:21.938Z,8.90
2018-12-11T13:16:56.804Z,11.03
2018-12-11T13:19:31.799Z,13.30
2018-12-11T13:22:06.766Z,12.03
2018-12-11T13:24:41.828Z,8.83
2018-12-11T13:27:16.604Z,7.83
2018-12-11T13:29:48.719Z,10.90
2018-12-11T13:32:21.401Z,8.70
2018-12-11T13:34:56.915Z,9.50
2018-12-11T13:37:31.965Z,12.60
2018-12-11T13:40:07.380Z,8.63
2018-12-11T13:42:41.565Z,8.90
2018-12-11T13:45:16.661Z,10.60
2018-12-11T13:47:49.487Z,11.23
2018-12-11T13:50:23.805Z,9.80
2018-12-11T13:52:58.866Z,10.47
2018-12-11T13:55:33.900Z,7.27
2018-12-11T13:58:08.940Z,12.17
2018-12-11T14:00:43.838Z,10.80
2018-12-11T14:03:18.862Z,11.43
2018-12-11T14:05:53.903Z,11.37
2018-12-11T14:08:28.153Z,11.88
2018-12-11T14:11:00.818Z,13.70
2018-12-11T14:13:35.242Z,11.37
2018-12-11T14:16:10.231Z,11.37
2018-12-11T14:18:44.112Z,10.50
2018-12-11T14:21:18.696Z,10.03
2018-12-11T14:23:53.600Z,9.73
2018-12-11T14:26:28.056Z,11.70
2018-12-11T14:29:02.123Z,7.70
2018-12-11T14:31:37.180Z,10.60
2018-12-11T14:34:11.936Z,11.43
2018-12-11T14:36:46.239Z,13.17
2018-12-11T14:39:20.419Z,10.00
2018-12-11T14:41:54.597Z,11.03
2018-12-11T14:44:28.844Z,10.40
2018-12-11T14:47:03.135Z,11.53
2018-12-11T14:49:37.709Z,13.83
2018-12-11T14:52:13.482Z,7.83
2018-12-11T14:54:48.158Z,5.23
2018-12-11T14:57:22.833Z,8.60
2018-12-11T14:59:58.315Z,8.10
2018-12-11T15:02:34.780Z,9.40
2018-12-11T15:05:10.207Z,9.37
2018-12-11T15:07:46.781Z,8.33
2018-12-11T15:10:21.385Z,8.98
2018-12-11T15:12:55.835Z,10.80
2018-12-11T15:15:31.790Z,9.40
2018-12-11T15:18:07.959Z,9.37
2018-12-11T15:20:43.850Z,9.30
2018-12-11T15:23:19.730Z,10.50
2018-12-11T15:25:55.631Z,6.97
2018-12-11T15:28:30.762Z,12.20
2018-12-11T15:31:13.380Z,8.60
2018-12-11T15:33:50.060Z,10.37
2018-12-11T15:36:27.145Z,7.93
2018-12-11T15:39:02.301Z,8.20
2018-12-11T15:41:37.251Z,9.70
2018-12-11T15:44:11.135Z,9.10
2018-12-11T15:46:45.362Z,10.73
2018-12-11T15:49:21.370Z,15.60
2018-12-11T15:51:56.553Z,9.13
2018-12-11T15:54:32.694Z,10.57
2018-12-11T15:57:08.087Z,9.00
2018-12-11T15:59:42.051Z,8.47
2018-12-11T16:02:16.372Z,11.43
2018-12-11T16:04:52.069Z,9.63
2018-12-11T16:07:26.486Z,10.40
2018-12-11T16:10:01.373Z,10.80
2018-12-11T16:12:36.218Z,11.00
2018-12-11T16:15:11.058Z,16.17
2018-12-11T16:17:45.690Z,13.37
2018-12-11T16:20:20.919Z,12.27
2018-12-11T16:22:57.009Z,13.43
2018-12-11T16:25:32.797Z,10.53
2018-12-11T16:28:07.953Z,11.33
2018-12-11T16:30:42.003Z,12.70
2018-12-11T16:33:16.333Z,9.83
2018-12-11T16:35:50.688Z,11.00
2018-12-11T16:38:24.930Z,15.80
2018-12-11T16:41:01.675Z,19.87
2018-12-11T16:43:36.540Z,15.37
2018-12-11T16:46:12.425Z,14.30
2018-12-11T16:48:47.192Z,14.30
2018-12-11T16:51:21.459Z,10.23
2018-12-11T16:53:58.340Z,11.93
2018-12-11T16:56:33.812Z,12.13
2018-12-11T16:59:09.999Z,12.60
2018-12-11T17:01:46.039Z,12.23
2018-12-11T17:04:22.363Z,15.17
2018-12-11T17:06:59.176Z,9.57
2018-12-11T17:09:36.311Z,10.50
2018-12-11T17:12:12.718Z,11.60
2018-12-11T17:14:47.820Z,15.03
2018-12-11T17:17:25.346Z,12.37
2018-12-11T17:20:04.503Z,14.03
2018-12-11T17:22:41.295Z,13.90
2018-12-11T17:25:16.573Z,12.90
2018-12-11T17:27:53.087Z,10.50
2018-12-11T17:30:29.505Z,13.63
2018-12-11T17:33:06.291Z,12.17
2018-12-11T17:35:41.131Z,15.00
2018-12-11T17:38:12.883Z,11.07
2018-12-11T17:40:47.312Z,10.53
2018-12-11T17:43:23.850Z,16.70
2018-12-11T17:45:58.958Z,8.37
2018-12-11T17:48:41.405Z,12.57
2018-12-11T17:51:12.536Z,10.23
2018-12-11T17:53:47.118Z,13.93
2018-12-11T17:56:23.565Z,7.87
2018-12-11T17:58:59.898Z,15.90
2018-12-11T18:01:35.794Z,14.67
2018-12-11T18:04:11.531Z,13.23
2018-12-11T18:06:45.890Z,8.70
2018-12-11T18:09:20.884Z,11.13
2018-12-11T18:11:55.659Z,13.13
2018-12-11T18:14:31.335Z,13.17
2018-12-11T18:17:06.652Z,13.50
2018-12-11T18:19:42.766Z,11.93
2018-12-11T18:22:18.956Z,13.45
2018-12-11T18:24:53.182Z,12.63
2018-12-11T18:27:28.200Z,8.93
2018-12-11T18:30:02.463Z,12.60
2018-12-11T18:32:36.518Z,11.27
2018-12-11T18:35:13.667Z,13.27
2018-12-11T18:37:47.930Z,12.43
2018-12-11T18:40:22.991Z,15.73
2018-12-11T18:42:57.369Z,9.10
2018-12-11T18:45:31.460Z,8.67
2018-12-11T18:48:06.181Z,13.10
2018-12-11T18:50:40.447Z,9.20
2018-12-11T18:53:15.220Z,10.63
2018-12-11T18:55:49.158Z,9.30
2018-12-11T18:58:24.820Z,13.20
2018-12-11T19:00:59.921Z,14.40
2018-12-11T19:03:34.471Z,9.60
2018-12-11T19:06:09.229Z,11.17
2018-12-11T19:08:46.009Z,9.53
2018-12-11T19:11:20.416Z,13.13
2018-12-11T19:13:55.154Z,14.30
2018-12-11T19:16:30.011Z,10.83
2018-12-11T19:19:04.405Z,11.37
2018-12-11T19:21:38.444Z,9.87
2018-12-11T19:24:45.117Z,11.10
2018-12-11T19:27:19.557Z,8.13
2018-12-11T19:29:53.807Z,12.17
2018-12-11T19:32:29.627Z,10.80
2018-12-11T19:35:02.115Z,9.73
2018-12-11T19:37:36.449Z,10.13
2018-12-11T19:40:11.398Z,10.03
2018-12-11T19:42:45.503Z,9.57
2018-12-11T19:45:19.411Z,10.70
2018-12-11T19:47:52.657Z,10.10
2018-12-11T19:50:27.144Z,12.67
2018-12-11T19:53:02.666Z,11.30
2018-12-11T19:55:38.106Z,9.63
2018-12-11T19:58:13.338Z,10.47
2018-12-11T20:00:47.372Z,9.77
2018-12-11T20:03:20.105Z,11.90
2018-12-11T20:05:54.578Z,9.60
2018-12-11T20:08:31.171Z,10.70
2018-12-11T20:11:04.143Z,11.93
2018-12-11T20:13:36.926Z,15.77
2018-12-11T20:16:11.251Z,10.60
2018-12-11T20:18:44.015Z,12.00
2018-12-11T20:21:18.312Z,10.60
2018-12-11T20:23:53.370Z,12.13
2018-12-11T20:26:28.290Z,12.10
2018-12-11T20:29:02.294Z,12.00
2018-12-11T20:31:36.641Z,11.20
2018-12-11T20:34:11.445Z,10.90
2018-12-11T20:36:46.697Z,12.80
2018-12-11T20:39:22.386Z,14.27
2018-12-11T20:41:58.030Z,12.60
2018-12-11T20:47:02.999Z,13.13
2018-12-11T20:49:37.286Z,13.13
2018-12-11T20:52:09.940Z,15.80
2018-12-11T20:54:44.197Z,14.10
2018-12-11T20:57:19.430Z,16.83
2018-12-11T20:59:51.985Z,16.07
2018-12-11T21:02:27.007Z,14.47
2018-12-11T21:05:01.834Z,15.73
2018-12-11T21:07:35.832Z,18.30
2018-12-11T21:10:10.823Z,13.67
2018-12-11T21:12:45.085Z,11.10
2018-12-11T21:15:19.159Z,17.27
2018-12-11T21:17:52.621Z,15.27
2018-12-11T21:20:27.324Z,15.23
2018-12-11T21:23:01.606Z,13.70
2018-12-11T21:25:35.870Z,16.97
2018-12-11T21:28:09.785Z,14.70
2018-12-11T21:30:44.376Z,13.23
2018-12-11T21:33:18.952Z,12.17
2018-12-11T21:35:51.480Z,15.03
2018-12-11T21:38:26.186Z,16.87
2018-12-11T21:41:00.755Z,16.13
2018-12-11T21:43:34.934Z,15.67
2018-12-11T21:48:39.591Z,18.73
2018-12-11T21:51:13.563Z,14.37
2018-12-11T21:53:46.012Z,14.93
2018-12-11T21:56:20.648Z,17.03
2018-12-11T21:58:53.127Z,17.33
2018-12-11T22:01:27.632Z,14.03
2018-12-11T22:04:01.711Z,17.37
2018-12-11T22:06:35.908Z,14.23
2018-12-11T22:09:10.497Z,14.80
2018-12-11T22:11:44.570Z,16.83
2018-12-11T22:14:18.651Z,17.80
2018-12-11T22:16:52.699Z,18.83
2018-12-11T22:19:26.823Z,17.80
2018-12-11T22:22:01.111Z,15.23
2018-12-11T22:24:33.646Z,15.00
2018-12-11T22:27:08.211Z,15.77
2018-12-11T22:29:42.152Z,17.17
2018-12-11T22:32:16.113Z,16.37
2018-12-11T22:34:50.331Z,18.40
2018-12-11T22:37:24.746Z,15.60
2018-12-11T22:39:59.644Z,17.53
2018-12-11T22:42:33.538Z,16.90
2018-12-11T22:45:07.720Z,18.50
2018-12-11T22:50:13.185Z,20.53
2018-12-11T22:52:48.051Z,17.30
2018-12-11T22:55:20.621Z,17.60
2018-12-11T22:57:52.779Z,16.50
2018-12-11T23:00:27.437Z,20.20
2018-12-11T23:03:02.088Z,20.60
2018-12-11T23:05:34.463Z,20.60
2018-12-11T23:08:08.971Z,22.00
2018-12-11T23:10:43.411Z,22.20
2018-12-11T23:13:15.750Z,24.73
2018-12-11T23:15:50.226Z,24.70
2018-12-11T23:18:24.139Z,29.83
2018-12-11T23:20:58.500Z,27.10
2018-12-11T23:23:33.386Z,27.37
2018-12-11T23:26:05.731Z,27.60
2018-12-11T23:28:39.590Z,27.93
2018-12-11T23:31:13.892Z,21.47
2018-12-11T23:33:46.216Z,21.87
2018-12-11T23:36:20.634Z,20.20
2018-12-11T23:38:53.296Z,25.20
2018-12-11T23:41:27.474Z,21.33
2018-12-11T23:44:01.729Z,17.63
2018-12-11T23:46:34.126Z,20.90
2018-12-11T23:49:08.486Z,19.60
2018-12-11T23:51:42.502Z,17.87
2018-12-11T23:54:16.592Z,21.17
2018-12-11T23:56:50.686Z,19.83
2018-12-11T23:59:29.059Z,20.07
